<?xml version="1.0" encoding="UTF-8" standalone="no" ?>
<gpx xmlns="http://www.topografix.com/GPX/1/1" xmlns:xsi="http://www.w3.org/2001/XMLSchema-instance" xsi:schemaLocation="http://www.topografix.com/GPX/1/1 http://www.topografix.com/GPX/1/1/gpx.xsd" version="1.1" creator="VisuGPX - https://www.visugpx.com">
  <metadata>
    <name>Jas Girard depuis Salérans</name>
    <desc><![CDATA[comment ...]]></desc>
  </metadata>
  <trk>
    <name><![CDATA[21 avr. 2024]]></name>
    <desc><![CDATA[comment ...]]></desc>
    <extensions>
      <line xmlns="http://www.topografix.com/GPX/gpx_style/0/2">
        <color>0000FF</color>
        <width>4</width>
      </line>
    </extensions>
    <trkseg>
      <trkpt lat="44.24302" lon="5.70625">
        <ele>708</ele>
        <time>2024-04-21T08:23:16Z</time>
        <extensions>
          <visugpx:TrkExtension xmlns:visugpx="https://www.visugpx.com/editgpx/">
            <visugpx:node>1</visugpx:node>
            </visugpx:TrkExtension>
        </extensions>
      </trkpt>
      <trkpt lat="44.24301" lon="5.70625">
        <ele>708</ele>
        <time>2024-04-21T08:23:17Z</time>
      </trkpt>
      <trkpt lat="44.24299" lon="5.70627">
        <ele>708</ele>
        <time>2024-04-21T08:23:22Z</time>
      </trkpt>
      <trkpt lat="44.24285" lon="5.70649">
        <ele>709</ele>
        <time>2024-04-21T08:23:54Z</time>
      </trkpt>
      <trkpt lat="44.24276" lon="5.7066">
        <ele>709</ele>
        <time>2024-04-21T08:24:13Z</time>
      </trkpt>
      <trkpt lat="44.24273" lon="5.70662">
        <ele>710</ele>
        <time>2024-04-21T08:24:18Z</time>
      </trkpt>
      <trkpt lat="44.24266" lon="5.70671">
        <ele>710</ele>
        <time>2024-04-21T08:24:30Z</time>
      </trkpt>
      <trkpt lat="44.24263" lon="5.70672">
        <ele>711</ele>
        <time>2024-04-21T08:24:47Z</time>
      </trkpt>
      <trkpt lat="44.24259" lon="5.70675">
        <ele>717</ele>
        <time>2024-04-21T08:26:29Z</time>
      </trkpt>
      <trkpt lat="44.24254" lon="5.70681">
        <ele>717</ele>
        <time>2024-04-21T08:26:40Z</time>
      </trkpt>
      <trkpt lat="44.24254" lon="5.70686">
        <ele>717</ele>
        <time>2024-04-21T08:26:49Z</time>
      </trkpt>
      <trkpt lat="44.24251" lon="5.70694">
        <ele>718</ele>
        <time>2024-04-21T08:27:02Z</time>
      </trkpt>
      <trkpt lat="44.24251" lon="5.70698">
        <ele>718</ele>
        <time>2024-04-21T08:27:11Z</time>
      </trkpt>
      <trkpt lat="44.24249" lon="5.70702">
        <ele>719</ele>
        <time>2024-04-21T08:27:25Z</time>
      </trkpt>
      <trkpt lat="44.24245" lon="5.70708">
        <ele>720</ele>
        <time>2024-04-21T08:27:38Z</time>
      </trkpt>
      <trkpt lat="44.24243" lon="5.70712">
        <ele>720</ele>
        <time>2024-04-21T08:27:42Z</time>
      </trkpt>
      <trkpt lat="44.24241" lon="5.70716">
        <ele>721</ele>
        <time>2024-04-21T08:27:46Z</time>
      </trkpt>
      <trkpt lat="44.24239" lon="5.70719">
        <ele>721</ele>
        <time>2024-04-21T08:27:52Z</time>
      </trkpt>
      <trkpt lat="44.2424" lon="5.70723">
        <ele>722</ele>
        <time>2024-04-21T08:27:59Z</time>
      </trkpt>
      <trkpt lat="44.24238" lon="5.70727">
        <ele>723</ele>
        <time>2024-04-21T08:28:03Z</time>
      </trkpt>
      <trkpt lat="44.24234" lon="5.70733">
        <ele>727</ele>
        <time>2024-04-21T08:28:34Z</time>
      </trkpt>
      <trkpt lat="44.24234" lon="5.70737">
        <ele>728</ele>
        <time>2024-04-21T08:28:40Z</time>
      </trkpt>
      <trkpt lat="44.24231" lon="5.70738">
        <ele>732</ele>
        <time>2024-04-21T08:29:12Z</time>
      </trkpt>
      <trkpt lat="44.24228" lon="5.70743">
        <ele>733</ele>
        <time>2024-04-21T08:29:16Z</time>
      </trkpt>
      <trkpt lat="44.24226" lon="5.70748">
        <ele>733</ele>
        <time>2024-04-21T08:29:19Z</time>
      </trkpt>
      <trkpt lat="44.24222" lon="5.70756">
        <ele>734</ele>
        <time>2024-04-21T08:29:25Z</time>
      </trkpt>
      <trkpt lat="44.2422" lon="5.70759">
        <ele>735</ele>
        <time>2024-04-21T08:29:29Z</time>
      </trkpt>
      <trkpt lat="44.24218" lon="5.70762">
        <ele>736</ele>
        <time>2024-04-21T08:29:34Z</time>
      </trkpt>
      <trkpt lat="44.24213" lon="5.70767">
        <ele>739</ele>
        <time>2024-04-21T08:29:56Z</time>
      </trkpt>
      <trkpt lat="44.2421" lon="5.70772">
        <ele>739</ele>
        <time>2024-04-21T08:30:00Z</time>
      </trkpt>
      <trkpt lat="44.24205" lon="5.708">
        <ele>743</ele>
        <time>2024-04-21T08:30:21Z</time>
      </trkpt>
      <trkpt lat="44.24206" lon="5.70804">
        <ele>743</ele>
        <time>2024-04-21T08:30:23Z</time>
      </trkpt>
      <trkpt lat="44.24195" lon="5.70836">
        <ele>748</ele>
        <time>2024-04-21T08:30:58Z</time>
      </trkpt>
      <trkpt lat="44.24194" lon="5.70842">
        <ele>748</ele>
        <time>2024-04-21T08:31:01Z</time>
      </trkpt>
      <trkpt lat="44.24193" lon="5.70846">
        <ele>749</ele>
        <time>2024-04-21T08:31:04Z</time>
      </trkpt>
      <trkpt lat="44.24192" lon="5.7085">
        <ele>750</ele>
        <time>2024-04-21T08:31:09Z</time>
      </trkpt>
      <trkpt lat="44.24175" lon="5.70878">
        <ele>754</ele>
        <time>2024-04-21T08:31:41Z</time>
      </trkpt>
      <trkpt lat="44.24173" lon="5.7091">
        <ele>757</ele>
        <time>2024-04-21T08:32:02Z</time>
      </trkpt>
      <trkpt lat="44.24171" lon="5.70935">
        <ele>759</ele>
        <time>2024-04-21T08:32:20Z</time>
      </trkpt>
      <trkpt lat="44.2417" lon="5.70944">
        <ele>760</ele>
        <time>2024-04-21T08:32:28Z</time>
      </trkpt>
      <trkpt lat="44.2417" lon="5.70958">
        <ele>761</ele>
        <time>2024-04-21T08:32:38Z</time>
      </trkpt>
      <trkpt lat="44.2417" lon="5.70967">
        <ele>762</ele>
        <time>2024-04-21T08:32:46Z</time>
      </trkpt>
      <trkpt lat="44.24166" lon="5.7101">
        <ele>766</ele>
        <time>2024-04-21T08:33:17Z</time>
      </trkpt>
      <trkpt lat="44.24162" lon="5.71022">
        <ele>767</ele>
        <time>2024-04-21T08:33:26Z</time>
      </trkpt>
      <trkpt lat="44.24158" lon="5.7103">
        <ele>768</ele>
        <time>2024-04-21T08:33:33Z</time>
      </trkpt>
      <trkpt lat="44.24152" lon="5.71043">
        <ele>769</ele>
        <time>2024-04-21T08:33:43Z</time>
      </trkpt>
      <trkpt lat="44.24151" lon="5.71047">
        <ele>769</ele>
        <time>2024-04-21T08:33:46Z</time>
      </trkpt>
      <trkpt lat="44.24142" lon="5.71062">
        <ele>771</ele>
        <time>2024-04-21T08:34:02Z</time>
      </trkpt>
      <trkpt lat="44.24138" lon="5.71064">
        <ele>772</ele>
        <time>2024-04-21T08:34:07Z</time>
      </trkpt>
      <trkpt lat="44.24133" lon="5.71069">
        <ele>772</ele>
        <time>2024-04-21T08:34:14Z</time>
      </trkpt>
      <trkpt lat="44.24129" lon="5.71071">
        <ele>773</ele>
        <time>2024-04-21T08:34:23Z</time>
      </trkpt>
      <trkpt lat="44.24126" lon="5.71073">
        <ele>780</ele>
        <time>2024-04-21T08:35:57Z</time>
      </trkpt>
      <trkpt lat="44.24111" lon="5.71084">
        <ele>780</ele>
        <time>2024-04-21T08:36:14Z</time>
      </trkpt>
      <trkpt lat="44.24087" lon="5.71096">
        <ele>781</ele>
        <time>2024-04-21T08:36:44Z</time>
      </trkpt>
      <trkpt lat="44.24083" lon="5.71099">
        <ele>782</ele>
        <time>2024-04-21T08:36:52Z</time>
      </trkpt>
      <trkpt lat="44.24075" lon="5.711">
        <ele>782</ele>
        <time>2024-04-21T08:36:59Z</time>
      </trkpt>
      <trkpt lat="44.24072" lon="5.71097">
        <ele>782</ele>
        <time>2024-04-21T08:37:07Z</time>
      </trkpt>
      <trkpt lat="44.24068" lon="5.71098">
        <ele>783</ele>
        <time>2024-04-21T08:37:10Z</time>
      </trkpt>
      <trkpt lat="44.24053" lon="5.71098">
        <ele>785</ele>
        <time>2024-04-21T08:37:26Z</time>
      </trkpt>
      <trkpt lat="44.2405" lon="5.71099">
        <ele>785</ele>
        <time>2024-04-21T08:37:31Z</time>
      </trkpt>
      <trkpt lat="44.24043" lon="5.71099">
        <ele>786</ele>
        <time>2024-04-21T08:37:42Z</time>
      </trkpt>
      <trkpt lat="44.2404" lon="5.71096">
        <ele>787</ele>
        <time>2024-04-21T08:37:48Z</time>
      </trkpt>
      <trkpt lat="44.24037" lon="5.71096">
        <ele>787</ele>
        <time>2024-04-21T08:37:51Z</time>
      </trkpt>
      <trkpt lat="44.24034" lon="5.71096">
        <ele>788</ele>
        <time>2024-04-21T08:37:54Z</time>
      </trkpt>
      <trkpt lat="44.24031" lon="5.71095">
        <ele>788</ele>
        <time>2024-04-21T08:38:02Z</time>
      </trkpt>
      <trkpt lat="44.24003" lon="5.71093">
        <ele>791</ele>
        <time>2024-04-21T08:38:36Z</time>
      </trkpt>
      <trkpt lat="44.23999" lon="5.71093">
        <ele>792</ele>
        <time>2024-04-21T08:38:41Z</time>
      </trkpt>
      <trkpt lat="44.23996" lon="5.71092">
        <ele>792</ele>
        <time>2024-04-21T08:38:46Z</time>
      </trkpt>
      <trkpt lat="44.23992" lon="5.71091">
        <ele>792</ele>
        <time>2024-04-21T08:38:51Z</time>
      </trkpt>
      <trkpt lat="44.2398" lon="5.71094">
        <ele>794</ele>
        <time>2024-04-21T08:39:08Z</time>
      </trkpt>
      <trkpt lat="44.23977" lon="5.71095">
        <ele>795</ele>
        <time>2024-04-21T08:39:13Z</time>
      </trkpt>
      <trkpt lat="44.23968" lon="5.71098">
        <ele>796</ele>
        <time>2024-04-21T08:39:25Z</time>
      </trkpt>
      <trkpt lat="44.23965" lon="5.71099">
        <ele>796</ele>
        <time>2024-04-21T08:39:30Z</time>
      </trkpt>
      <trkpt lat="44.23952" lon="5.71111">
        <ele>799</ele>
        <time>2024-04-21T08:39:52Z</time>
      </trkpt>
      <trkpt lat="44.23936" lon="5.71121">
        <ele>801</ele>
        <time>2024-04-21T08:40:14Z</time>
      </trkpt>
      <trkpt lat="44.23933" lon="5.71123">
        <ele>802</ele>
        <time>2024-04-21T08:40:19Z</time>
      </trkpt>
      <trkpt lat="44.2392" lon="5.71136">
        <ele>805</ele>
        <time>2024-04-21T08:40:42Z</time>
      </trkpt>
      <trkpt lat="44.23915" lon="5.71141">
        <ele>806</ele>
        <time>2024-04-21T08:40:50Z</time>
      </trkpt>
      <trkpt lat="44.23914" lon="5.71145">
        <ele>806</ele>
        <time>2024-04-21T08:40:55Z</time>
      </trkpt>
      <trkpt lat="44.23912" lon="5.71149">
        <ele>807</ele>
        <time>2024-04-21T08:40:59Z</time>
      </trkpt>
      <trkpt lat="44.2391" lon="5.71153">
        <ele>807</ele>
        <time>2024-04-21T08:41:03Z</time>
      </trkpt>
      <trkpt lat="44.23903" lon="5.71174">
        <ele>810</ele>
        <time>2024-04-21T08:41:23Z</time>
      </trkpt>
      <trkpt lat="44.23901" lon="5.71179">
        <ele>810</ele>
        <time>2024-04-21T08:41:26Z</time>
      </trkpt>
      <trkpt lat="44.239" lon="5.71183">
        <ele>811</ele>
        <time>2024-04-21T08:41:29Z</time>
      </trkpt>
      <trkpt lat="44.23898" lon="5.71206">
        <ele>813</ele>
        <time>2024-04-21T08:41:48Z</time>
      </trkpt>
      <trkpt lat="44.239" lon="5.7122">
        <ele>814</ele>
        <time>2024-04-21T08:42:00Z</time>
      </trkpt>
      <trkpt lat="44.23909" lon="5.71234">
        <ele>816</ele>
        <time>2024-04-21T08:42:18Z</time>
      </trkpt>
      <trkpt lat="44.23917" lon="5.71259">
        <ele>819</ele>
        <time>2024-04-21T08:42:43Z</time>
      </trkpt>
      <trkpt lat="44.23915" lon="5.71263">
        <ele>819</ele>
        <time>2024-04-21T08:42:47Z</time>
      </trkpt>
      <trkpt lat="44.23913" lon="5.71272">
        <ele>820</ele>
        <time>2024-04-21T08:42:55Z</time>
      </trkpt>
      <trkpt lat="44.23908" lon="5.71278">
        <ele>821</ele>
        <time>2024-04-21T08:43:03Z</time>
      </trkpt>
      <trkpt lat="44.23903" lon="5.71283">
        <ele>822</ele>
        <time>2024-04-21T08:43:12Z</time>
      </trkpt>
      <trkpt lat="44.23893" lon="5.71297">
        <ele>824</ele>
        <time>2024-04-21T08:43:34Z</time>
      </trkpt>
      <trkpt lat="44.23887" lon="5.71319">
        <ele>827</ele>
        <time>2024-04-21T08:43:53Z</time>
      </trkpt>
      <trkpt lat="44.23891" lon="5.71345">
        <ele>829</ele>
        <time>2024-04-21T08:44:19Z</time>
      </trkpt>
      <trkpt lat="44.2389" lon="5.71349">
        <ele>830</ele>
        <time>2024-04-21T08:44:22Z</time>
      </trkpt>
      <trkpt lat="44.23882" lon="5.71362">
        <ele>832</ele>
        <time>2024-04-21T08:44:38Z</time>
      </trkpt>
      <trkpt lat="44.23871" lon="5.71372">
        <ele>834</ele>
        <time>2024-04-21T08:44:58Z</time>
      </trkpt>
      <trkpt lat="44.23867" lon="5.7138">
        <ele>835</ele>
        <time>2024-04-21T08:45:11Z</time>
      </trkpt>
      <trkpt lat="44.23865" lon="5.71382">
        <ele>836</ele>
        <time>2024-04-21T08:45:16Z</time>
      </trkpt>
      <trkpt lat="44.23863" lon="5.71391">
        <ele>837</ele>
        <time>2024-04-21T08:45:24Z</time>
      </trkpt>
      <trkpt lat="44.23862" lon="5.71396">
        <ele>837</ele>
        <time>2024-04-21T08:45:27Z</time>
      </trkpt>
      <trkpt lat="44.23865" lon="5.7142">
        <ele>839</ele>
        <time>2024-04-21T08:45:43Z</time>
      </trkpt>
      <trkpt lat="44.23864" lon="5.71433">
        <ele>840</ele>
        <time>2024-04-21T08:45:52Z</time>
      </trkpt>
      <trkpt lat="44.2386" lon="5.71444">
        <ele>842</ele>
        <time>2024-04-21T08:46:01Z</time>
      </trkpt>
      <trkpt lat="44.23856" lon="5.71456">
        <ele>843</ele>
        <time>2024-04-21T08:46:12Z</time>
      </trkpt>
      <trkpt lat="44.23857" lon="5.7146">
        <ele>843</ele>
        <time>2024-04-21T08:46:15Z</time>
      </trkpt>
      <trkpt lat="44.23858" lon="5.71466">
        <ele>844</ele>
        <time>2024-04-21T08:46:20Z</time>
      </trkpt>
      <trkpt lat="44.23857" lon="5.71471">
        <ele>844</ele>
        <time>2024-04-21T08:46:23Z</time>
      </trkpt>
      <trkpt lat="44.23852" lon="5.71483">
        <ele>845</ele>
        <time>2024-04-21T08:46:33Z</time>
      </trkpt>
      <trkpt lat="44.2385" lon="5.71487">
        <ele>846</ele>
        <time>2024-04-21T08:46:37Z</time>
      </trkpt>
      <trkpt lat="44.23849" lon="5.71491">
        <ele>846</ele>
        <time>2024-04-21T08:46:40Z</time>
      </trkpt>
      <trkpt lat="44.23846" lon="5.71494">
        <ele>846</ele>
        <time>2024-04-21T08:46:43Z</time>
      </trkpt>
      <trkpt lat="44.23845" lon="5.71498">
        <ele>847</ele>
        <time>2024-04-21T08:46:47Z</time>
      </trkpt>
      <trkpt lat="44.23845" lon="5.71506">
        <ele>847</ele>
        <time>2024-04-21T08:46:56Z</time>
      </trkpt>
      <trkpt lat="44.23842" lon="5.71515">
        <ele>848</ele>
        <time>2024-04-21T08:47:04Z</time>
      </trkpt>
      <trkpt lat="44.2384" lon="5.71518">
        <ele>848</ele>
        <time>2024-04-21T08:47:07Z</time>
      </trkpt>
      <trkpt lat="44.23837" lon="5.71521">
        <ele>849</ele>
        <time>2024-04-21T08:47:11Z</time>
      </trkpt>
      <trkpt lat="44.23835" lon="5.71524">
        <ele>849</ele>
        <time>2024-04-21T08:47:15Z</time>
      </trkpt>
      <trkpt lat="44.23834" lon="5.71529">
        <ele>849</ele>
        <time>2024-04-21T08:47:19Z</time>
      </trkpt>
      <trkpt lat="44.2383" lon="5.71537">
        <ele>850</ele>
        <time>2024-04-21T08:47:28Z</time>
      </trkpt>
      <trkpt lat="44.23829" lon="5.71541">
        <ele>851</ele>
        <time>2024-04-21T08:47:32Z</time>
      </trkpt>
      <trkpt lat="44.23828" lon="5.71546">
        <ele>851</ele>
        <time>2024-04-21T08:47:37Z</time>
      </trkpt>
      <trkpt lat="44.23826" lon="5.7155">
        <ele>852</ele>
        <time>2024-04-21T08:47:44Z</time>
      </trkpt>
      <trkpt lat="44.23827" lon="5.71555">
        <ele>852</ele>
        <time>2024-04-21T08:47:50Z</time>
      </trkpt>
      <trkpt lat="44.23818" lon="5.71586">
        <ele>855</ele>
        <time>2024-04-21T08:48:17Z</time>
      </trkpt>
      <trkpt lat="44.23813" lon="5.71598">
        <ele>857</ele>
        <time>2024-04-21T08:48:32Z</time>
      </trkpt>
      <trkpt lat="44.23811" lon="5.71611">
        <ele>858</ele>
        <time>2024-04-21T08:48:46Z</time>
      </trkpt>
      <trkpt lat="44.23816" lon="5.71632">
        <ele>860</ele>
        <time>2024-04-21T08:49:03Z</time>
      </trkpt>
      <trkpt lat="44.23817" lon="5.71636">
        <ele>861</ele>
        <time>2024-04-21T08:49:06Z</time>
      </trkpt>
      <trkpt lat="44.23819" lon="5.7165">
        <ele>862</ele>
        <time>2024-04-21T08:49:18Z</time>
      </trkpt>
      <trkpt lat="44.23819" lon="5.71654">
        <ele>863</ele>
        <time>2024-04-21T08:49:23Z</time>
      </trkpt>
      <trkpt lat="44.23821" lon="5.71657">
        <ele>870</ele>
        <time>2024-04-21T08:52:11Z</time>
      </trkpt>
      <trkpt lat="44.23822" lon="5.71661">
        <ele>870</ele>
        <time>2024-04-21T08:52:16Z</time>
      </trkpt>
      <trkpt lat="44.2382" lon="5.71673">
        <ele>870</ele>
        <time>2024-04-21T08:52:27Z</time>
      </trkpt>
      <trkpt lat="44.23814" lon="5.71684">
        <ele>870</ele>
        <time>2024-04-21T08:52:40Z</time>
      </trkpt>
      <trkpt lat="44.23798" lon="5.7171">
        <ele>871</ele>
        <time>2024-04-21T08:53:12Z</time>
      </trkpt>
      <trkpt lat="44.23796" lon="5.71713">
        <ele>871</ele>
        <time>2024-04-21T08:53:16Z</time>
      </trkpt>
      <trkpt lat="44.23794" lon="5.71717">
        <ele>872</ele>
        <time>2024-04-21T08:53:20Z</time>
      </trkpt>
      <trkpt lat="44.23791" lon="5.71719">
        <ele>872</ele>
        <time>2024-04-21T08:53:24Z</time>
      </trkpt>
      <trkpt lat="44.23789" lon="5.71722">
        <ele>872</ele>
        <time>2024-04-21T08:53:28Z</time>
      </trkpt>
      <trkpt lat="44.23786" lon="5.71725">
        <ele>872</ele>
        <time>2024-04-21T08:53:32Z</time>
      </trkpt>
      <trkpt lat="44.23784" lon="5.71729">
        <ele>873</ele>
        <time>2024-04-21T08:53:36Z</time>
      </trkpt>
      <trkpt lat="44.23783" lon="5.71733">
        <ele>873</ele>
        <time>2024-04-21T08:53:40Z</time>
      </trkpt>
      <trkpt lat="44.23782" lon="5.71739">
        <ele>873</ele>
        <time>2024-04-21T08:53:45Z</time>
      </trkpt>
      <trkpt lat="44.23779" lon="5.71754">
        <ele>874</ele>
        <time>2024-04-21T08:53:59Z</time>
      </trkpt>
      <trkpt lat="44.23775" lon="5.71769">
        <ele>875</ele>
        <time>2024-04-21T08:54:14Z</time>
      </trkpt>
      <trkpt lat="44.23776" lon="5.71776">
        <ele>876</ele>
        <time>2024-04-21T08:54:21Z</time>
      </trkpt>
      <trkpt lat="44.23771" lon="5.71788">
        <ele>877</ele>
        <time>2024-04-21T08:54:34Z</time>
      </trkpt>
      <trkpt lat="44.23772" lon="5.71795">
        <ele>878</ele>
        <time>2024-04-21T08:54:40Z</time>
      </trkpt>
      <trkpt lat="44.23772" lon="5.71807">
        <ele>879</ele>
        <time>2024-04-21T08:54:51Z</time>
      </trkpt>
      <trkpt lat="44.23772" lon="5.71813">
        <ele>879</ele>
        <time>2024-04-21T08:54:56Z</time>
      </trkpt>
      <trkpt lat="44.2377" lon="5.7184">
        <ele>882</ele>
        <time>2024-04-21T08:55:20Z</time>
      </trkpt>
      <trkpt lat="44.2377" lon="5.71848">
        <ele>883</ele>
        <time>2024-04-21T08:55:29Z</time>
      </trkpt>
      <trkpt lat="44.23769" lon="5.71866">
        <ele>886</ele>
        <time>2024-04-21T08:55:49Z</time>
      </trkpt>
      <trkpt lat="44.23773" lon="5.71894">
        <ele>889</ele>
        <time>2024-04-21T08:56:10Z</time>
      </trkpt>
      <trkpt lat="44.23774" lon="5.71901">
        <ele>889</ele>
        <time>2024-04-21T08:56:16Z</time>
      </trkpt>
      <trkpt lat="44.23775" lon="5.71907">
        <ele>890</ele>
        <time>2024-04-21T08:56:21Z</time>
      </trkpt>
      <trkpt lat="44.2378" lon="5.71925">
        <ele>892</ele>
        <time>2024-04-21T08:56:34Z</time>
      </trkpt>
      <trkpt lat="44.23776" lon="5.7194">
        <ele>893</ele>
        <time>2024-04-21T08:56:45Z</time>
      </trkpt>
      <trkpt lat="44.23773" lon="5.71948">
        <ele>894</ele>
        <time>2024-04-21T08:56:50Z</time>
      </trkpt>
      <trkpt lat="44.23771" lon="5.71968">
        <ele>895</ele>
        <time>2024-04-21T08:57:03Z</time>
      </trkpt>
      <trkpt lat="44.23773" lon="5.71974">
        <ele>896</ele>
        <time>2024-04-21T08:57:07Z</time>
      </trkpt>
      <trkpt lat="44.23773" lon="5.7198">
        <ele>896</ele>
        <time>2024-04-21T08:57:11Z</time>
      </trkpt>
      <trkpt lat="44.23779" lon="5.71996">
        <ele>897</ele>
        <time>2024-04-21T08:57:23Z</time>
      </trkpt>
      <trkpt lat="44.23781" lon="5.72">
        <ele>898</ele>
        <time>2024-04-21T08:57:28Z</time>
      </trkpt>
      <trkpt lat="44.23788" lon="5.72019">
        <ele>899</ele>
        <time>2024-04-21T08:57:44Z</time>
      </trkpt>
      <trkpt lat="44.2379" lon="5.72025">
        <ele>900</ele>
        <time>2024-04-21T08:57:49Z</time>
      </trkpt>
      <trkpt lat="44.23789" lon="5.7204">
        <ele>901</ele>
        <time>2024-04-21T08:58:01Z</time>
      </trkpt>
      <trkpt lat="44.23791" lon="5.7205">
        <ele>902</ele>
        <time>2024-04-21T08:58:12Z</time>
      </trkpt>
      <trkpt lat="44.23792" lon="5.72056">
        <ele>903</ele>
        <time>2024-04-21T08:58:20Z</time>
      </trkpt>
      <trkpt lat="44.23793" lon="5.72062">
        <ele>903</ele>
        <time>2024-04-21T08:58:25Z</time>
      </trkpt>
      <trkpt lat="44.23792" lon="5.72068">
        <ele>904</ele>
        <time>2024-04-21T08:58:32Z</time>
      </trkpt>
      <trkpt lat="44.23793" lon="5.72075">
        <ele>905</ele>
        <time>2024-04-21T08:58:45Z</time>
      </trkpt>
      <trkpt lat="44.23789" lon="5.7208">
        <ele>906</ele>
        <time>2024-04-21T08:58:54Z</time>
      </trkpt>
      <trkpt lat="44.23795" lon="5.72091">
        <ele>908</ele>
        <time>2024-04-21T08:59:09Z</time>
      </trkpt>
      <trkpt lat="44.23794" lon="5.72095">
        <ele>909</ele>
        <time>2024-04-21T08:59:16Z</time>
      </trkpt>
      <trkpt lat="44.23793" lon="5.72099">
        <ele>909</ele>
        <time>2024-04-21T08:59:19Z</time>
      </trkpt>
      <trkpt lat="44.2379" lon="5.7211">
        <ele>910</ele>
        <time>2024-04-21T08:59:28Z</time>
      </trkpt>
      <trkpt lat="44.23788" lon="5.72115">
        <ele>911</ele>
        <time>2024-04-21T08:59:34Z</time>
      </trkpt>
      <trkpt lat="44.23784" lon="5.72133">
        <ele>913</ele>
        <time>2024-04-21T08:59:51Z</time>
      </trkpt>
      <trkpt lat="44.23783" lon="5.72139">
        <ele>914</ele>
        <time>2024-04-21T08:59:55Z</time>
      </trkpt>
      <trkpt lat="44.2378" lon="5.72144">
        <ele>915</ele>
        <time>2024-04-21T09:00:00Z</time>
      </trkpt>
      <trkpt lat="44.23777" lon="5.72151">
        <ele>916</ele>
        <time>2024-04-21T09:00:08Z</time>
      </trkpt>
      <trkpt lat="44.23776" lon="5.72182">
        <ele>919</ele>
        <time>2024-04-21T09:00:35Z</time>
      </trkpt>
      <trkpt lat="44.2378" lon="5.72217">
        <ele>923</ele>
        <time>2024-04-21T09:01:01Z</time>
      </trkpt>
      <trkpt lat="44.2378" lon="5.7225">
        <ele>926</ele>
        <time>2024-04-21T09:01:27Z</time>
      </trkpt>
      <trkpt lat="44.23784" lon="5.72267">
        <ele>927</ele>
        <time>2024-04-21T09:01:39Z</time>
      </trkpt>
      <trkpt lat="44.23786" lon="5.72275">
        <ele>928</ele>
        <time>2024-04-21T09:01:46Z</time>
      </trkpt>
      <trkpt lat="44.23786" lon="5.72306">
        <ele>930</ele>
        <time>2024-04-21T09:02:06Z</time>
      </trkpt>
      <trkpt lat="44.23787" lon="5.72314">
        <ele>930</ele>
        <time>2024-04-21T09:02:11Z</time>
      </trkpt>
      <trkpt lat="44.23792" lon="5.72319">
        <ele>931</ele>
        <time>2024-04-21T09:02:17Z</time>
      </trkpt>
      <trkpt lat="44.23794" lon="5.72326">
        <ele>932</ele>
        <time>2024-04-21T09:02:22Z</time>
      </trkpt>
      <trkpt lat="44.23795" lon="5.72333">
        <ele>932</ele>
        <time>2024-04-21T09:02:27Z</time>
      </trkpt>
      <trkpt lat="44.23801" lon="5.72346">
        <ele>933</ele>
        <time>2024-04-21T09:02:40Z</time>
      </trkpt>
      <trkpt lat="44.23802" lon="5.72351">
        <ele>934</ele>
        <time>2024-04-21T09:02:46Z</time>
      </trkpt>
      <trkpt lat="44.23804" lon="5.72355">
        <ele>934</ele>
        <time>2024-04-21T09:02:50Z</time>
      </trkpt>
      <trkpt lat="44.23807" lon="5.72357">
        <ele>935</ele>
        <time>2024-04-21T09:02:53Z</time>
      </trkpt>
      <trkpt lat="44.23809" lon="5.72359">
        <ele>935</ele>
        <time>2024-04-21T09:02:56Z</time>
      </trkpt>
      <trkpt lat="44.23812" lon="5.72363">
        <ele>935</ele>
        <time>2024-04-21T09:03:00Z</time>
      </trkpt>
      <trkpt lat="44.2383" lon="5.7239">
        <ele>940</ele>
        <time>2024-04-21T09:03:38Z</time>
      </trkpt>
      <trkpt lat="44.23832" lon="5.72397">
        <ele>940</ele>
        <time>2024-04-21T09:03:43Z</time>
      </trkpt>
      <trkpt lat="44.23831" lon="5.72404">
        <ele>941</ele>
        <time>2024-04-21T09:03:47Z</time>
      </trkpt>
      <trkpt lat="44.23831" lon="5.7241">
        <ele>941</ele>
        <time>2024-04-21T09:03:52Z</time>
      </trkpt>
      <trkpt lat="44.23831" lon="5.72414">
        <ele>949</ele>
        <time>2024-04-21T09:05:25Z</time>
      </trkpt>
      <trkpt lat="44.23829" lon="5.72421">
        <ele>951</ele>
        <time>2024-04-21T09:08:50Z</time>
      </trkpt>
      <trkpt lat="44.23823" lon="5.72432">
        <ele>951</ele>
        <time>2024-04-21T09:09:01Z</time>
      </trkpt>
      <trkpt lat="44.23824" lon="5.7244">
        <ele>951</ele>
        <time>2024-04-21T09:09:07Z</time>
      </trkpt>
      <trkpt lat="44.23818" lon="5.72448">
        <ele>951</ele>
        <time>2024-04-21T09:09:15Z</time>
      </trkpt>
      <trkpt lat="44.23814" lon="5.7246">
        <ele>951</ele>
        <time>2024-04-21T09:09:24Z</time>
      </trkpt>
      <trkpt lat="44.23812" lon="5.72465">
        <ele>952</ele>
        <time>2024-04-21T09:09:29Z</time>
      </trkpt>
      <trkpt lat="44.23809" lon="5.72479">
        <ele>952</ele>
        <time>2024-04-21T09:09:41Z</time>
      </trkpt>
      <trkpt lat="44.23809" lon="5.72488">
        <ele>952</ele>
        <time>2024-04-21T09:09:53Z</time>
      </trkpt>
      <trkpt lat="44.23807" lon="5.72495">
        <ele>952</ele>
        <time>2024-04-21T09:10:00Z</time>
      </trkpt>
      <trkpt lat="44.23804" lon="5.72502">
        <ele>953</ele>
        <time>2024-04-21T09:10:08Z</time>
      </trkpt>
      <trkpt lat="44.238" lon="5.72508">
        <ele>953</ele>
        <time>2024-04-21T09:10:17Z</time>
      </trkpt>
      <trkpt lat="44.238" lon="5.72515">
        <ele>954</ele>
        <time>2024-04-21T09:10:24Z</time>
      </trkpt>
      <trkpt lat="44.23797" lon="5.72523">
        <ele>955</ele>
        <time>2024-04-21T09:10:34Z</time>
      </trkpt>
      <trkpt lat="44.23792" lon="5.72528">
        <ele>956</ele>
        <time>2024-04-21T09:10:43Z</time>
      </trkpt>
      <trkpt lat="44.23789" lon="5.72536">
        <ele>957</ele>
        <time>2024-04-21T09:10:53Z</time>
      </trkpt>
      <trkpt lat="44.23789" lon="5.72545">
        <ele>958</ele>
        <time>2024-04-21T09:11:04Z</time>
      </trkpt>
      <trkpt lat="44.2379" lon="5.72552">
        <ele>959</ele>
        <time>2024-04-21T09:11:12Z</time>
      </trkpt>
      <trkpt lat="44.2379" lon="5.72559">
        <ele>960</ele>
        <time>2024-04-21T09:11:20Z</time>
      </trkpt>
      <trkpt lat="44.23786" lon="5.72579">
        <ele>963</ele>
        <time>2024-04-21T09:11:43Z</time>
      </trkpt>
      <trkpt lat="44.23788" lon="5.72586">
        <ele>964</ele>
        <time>2024-04-21T09:11:52Z</time>
      </trkpt>
      <trkpt lat="44.23789" lon="5.72594">
        <ele>965</ele>
        <time>2024-04-21T09:12:00Z</time>
      </trkpt>
      <trkpt lat="44.23785" lon="5.72601">
        <ele>966</ele>
        <time>2024-04-21T09:12:07Z</time>
      </trkpt>
      <trkpt lat="44.23784" lon="5.72609">
        <ele>967</ele>
        <time>2024-04-21T09:12:16Z</time>
      </trkpt>
      <trkpt lat="44.23782" lon="5.72617">
        <ele>969</ele>
        <time>2024-04-21T09:12:27Z</time>
      </trkpt>
      <trkpt lat="44.23778" lon="5.72623">
        <ele>969</ele>
        <time>2024-04-21T09:12:32Z</time>
      </trkpt>
      <trkpt lat="44.23782" lon="5.72632">
        <ele>970</ele>
        <time>2024-04-21T09:12:40Z</time>
      </trkpt>
      <trkpt lat="44.23781" lon="5.72639">
        <ele>972</ele>
        <time>2024-04-21T09:12:50Z</time>
      </trkpt>
      <trkpt lat="44.23778" lon="5.72652">
        <ele>974</ele>
        <time>2024-04-21T09:13:04Z</time>
      </trkpt>
      <trkpt lat="44.23775" lon="5.72665">
        <ele>976</ele>
        <time>2024-04-21T09:13:20Z</time>
      </trkpt>
      <trkpt lat="44.23771" lon="5.72672">
        <ele>979</ele>
        <time>2024-04-21T09:13:36Z</time>
      </trkpt>
      <trkpt lat="44.23768" lon="5.7269">
        <ele>982</ele>
        <time>2024-04-21T09:13:56Z</time>
      </trkpt>
      <trkpt lat="44.23766" lon="5.72699">
        <ele>983</ele>
        <time>2024-04-21T09:14:04Z</time>
      </trkpt>
      <trkpt lat="44.23766" lon="5.72708">
        <ele>984</ele>
        <time>2024-04-21T09:14:13Z</time>
      </trkpt>
      <trkpt lat="44.23766" lon="5.72717">
        <ele>987</ele>
        <time>2024-04-21T09:14:35Z</time>
      </trkpt>
      <trkpt lat="44.23771" lon="5.72732">
        <ele>992</ele>
        <time>2024-04-21T09:15:04Z</time>
      </trkpt>
      <trkpt lat="44.23779" lon="5.72739">
        <ele>993</ele>
        <time>2024-04-21T09:15:16Z</time>
      </trkpt>
      <trkpt lat="44.23784" lon="5.72753">
        <ele>996</ele>
        <time>2024-04-21T09:15:31Z</time>
      </trkpt>
      <trkpt lat="44.23786" lon="5.7276">
        <ele>997</ele>
        <time>2024-04-21T09:15:40Z</time>
      </trkpt>
      <trkpt lat="44.23794" lon="5.72767">
        <ele>998</ele>
        <time>2024-04-21T09:15:50Z</time>
      </trkpt>
      <trkpt lat="44.23797" lon="5.72774">
        <ele>1000</ele>
        <time>2024-04-21T09:16:04Z</time>
      </trkpt>
      <trkpt lat="44.23798" lon="5.7278">
        <ele>1001</ele>
        <time>2024-04-21T09:16:10Z</time>
      </trkpt>
      <trkpt lat="44.23794" lon="5.72785">
        <ele>1002</ele>
        <time>2024-04-21T09:16:16Z</time>
      </trkpt>
      <trkpt lat="44.23791" lon="5.72794">
        <ele>1003</ele>
        <time>2024-04-21T09:16:23Z</time>
      </trkpt>
      <trkpt lat="44.23784" lon="5.72802">
        <ele>1004</ele>
        <time>2024-04-21T09:16:35Z</time>
      </trkpt>
      <trkpt lat="44.23779" lon="5.72808">
        <ele>1005</ele>
        <time>2024-04-21T09:16:41Z</time>
      </trkpt>
      <trkpt lat="44.23777" lon="5.72813">
        <ele>1006</ele>
        <time>2024-04-21T09:16:46Z</time>
      </trkpt>
      <trkpt lat="44.23773" lon="5.72818">
        <ele>1007</ele>
        <time>2024-04-21T09:16:54Z</time>
      </trkpt>
      <trkpt lat="44.23769" lon="5.72822">
        <ele>1008</ele>
        <time>2024-04-21T09:16:59Z</time>
      </trkpt>
      <trkpt lat="44.2377" lon="5.72831">
        <ele>1008</ele>
        <time>2024-04-21T09:17:06Z</time>
      </trkpt>
      <trkpt lat="44.23771" lon="5.72838">
        <ele>1009</ele>
        <time>2024-04-21T09:17:14Z</time>
      </trkpt>
      <trkpt lat="44.2377" lon="5.72854">
        <ele>1012</ele>
        <time>2024-04-21T09:17:31Z</time>
      </trkpt>
      <trkpt lat="44.2377" lon="5.72864">
        <ele>1013</ele>
        <time>2024-04-21T09:17:40Z</time>
      </trkpt>
      <trkpt lat="44.23769" lon="5.72871">
        <ele>1013</ele>
        <time>2024-04-21T09:17:45Z</time>
      </trkpt>
      <trkpt lat="44.23766" lon="5.72876">
        <ele>1015</ele>
        <time>2024-04-21T09:17:55Z</time>
      </trkpt>
      <trkpt lat="44.23765" lon="5.72883">
        <ele>1016</ele>
        <time>2024-04-21T09:18:01Z</time>
      </trkpt>
      <trkpt lat="44.23767" lon="5.72888">
        <ele>1016</ele>
        <time>2024-04-21T09:18:06Z</time>
      </trkpt>
      <trkpt lat="44.23765" lon="5.729">
        <ele>1018</ele>
        <time>2024-04-21T09:18:19Z</time>
      </trkpt>
      <trkpt lat="44.23764" lon="5.7291">
        <ele>1019</ele>
        <time>2024-04-21T09:18:28Z</time>
      </trkpt>
      <trkpt lat="44.23765" lon="5.72917">
        <ele>1021</ele>
        <time>2024-04-21T09:18:41Z</time>
      </trkpt>
      <trkpt lat="44.23767" lon="5.7293">
        <ele>1023</ele>
        <time>2024-04-21T09:18:57Z</time>
      </trkpt>
      <trkpt lat="44.23768" lon="5.72937">
        <ele>1024</ele>
        <time>2024-04-21T09:19:06Z</time>
      </trkpt>
      <trkpt lat="44.23767" lon="5.72947">
        <ele>1027</ele>
        <time>2024-04-21T09:19:26Z</time>
      </trkpt>
      <trkpt lat="44.23764" lon="5.72954">
        <ele>1028</ele>
        <time>2024-04-21T09:19:32Z</time>
      </trkpt>
      <trkpt lat="44.23769" lon="5.7298">
        <ele>1031</ele>
        <time>2024-04-21T09:19:57Z</time>
      </trkpt>
      <trkpt lat="44.2377" lon="5.72986">
        <ele>1032</ele>
        <time>2024-04-21T09:20:02Z</time>
      </trkpt>
      <trkpt lat="44.23768" lon="5.72995">
        <ele>1033</ele>
        <time>2024-04-21T09:20:08Z</time>
      </trkpt>
      <trkpt lat="44.23766" lon="5.73002">
        <ele>1033</ele>
        <time>2024-04-21T09:20:13Z</time>
      </trkpt>
      <trkpt lat="44.23767" lon="5.7301">
        <ele>1034</ele>
        <time>2024-04-21T09:20:20Z</time>
      </trkpt>
      <trkpt lat="44.23767" lon="5.73017">
        <ele>1035</ele>
        <time>2024-04-21T09:20:26Z</time>
      </trkpt>
      <trkpt lat="44.23766" lon="5.73023">
        <ele>1036</ele>
        <time>2024-04-21T09:20:30Z</time>
      </trkpt>
      <trkpt lat="44.23761" lon="5.7303">
        <ele>1036</ele>
        <time>2024-04-21T09:20:36Z</time>
      </trkpt>
      <trkpt lat="44.2376" lon="5.73038">
        <ele>1037</ele>
        <time>2024-04-21T09:20:44Z</time>
      </trkpt>
      <trkpt lat="44.23766" lon="5.73052">
        <ele>1042</ele>
        <time>2024-04-21T09:21:22Z</time>
      </trkpt>
      <trkpt lat="44.23769" lon="5.73057">
        <ele>1047</ele>
        <time>2024-04-21T09:22:47Z</time>
      </trkpt>
      <trkpt lat="44.23767" lon="5.73065">
        <ele>1048</ele>
        <time>2024-04-21T09:27:33Z</time>
      </trkpt>
      <trkpt lat="44.23767" lon="5.73072">
        <ele>1048</ele>
        <time>2024-04-21T09:27:40Z</time>
      </trkpt>
      <trkpt lat="44.23769" lon="5.73079">
        <ele>1048</ele>
        <time>2024-04-21T09:27:47Z</time>
      </trkpt>
      <trkpt lat="44.23768" lon="5.73085">
        <ele>1048</ele>
        <time>2024-04-21T09:27:52Z</time>
      </trkpt>
      <trkpt lat="44.23768" lon="5.73089">
        <ele>1048</ele>
        <time>2024-04-21T09:27:55Z</time>
      </trkpt>
      <trkpt lat="44.2377" lon="5.73095">
        <ele>1048</ele>
        <time>2024-04-21T09:27:59Z</time>
      </trkpt>
      <trkpt lat="44.23763" lon="5.73122">
        <ele>1048</ele>
        <time>2024-04-21T09:28:23Z</time>
      </trkpt>
      <trkpt lat="44.23757" lon="5.73131">
        <ele>1049</ele>
        <time>2024-04-21T09:28:32Z</time>
      </trkpt>
      <trkpt lat="44.23755" lon="5.7314">
        <ele>1049</ele>
        <time>2024-04-21T09:28:39Z</time>
      </trkpt>
      <trkpt lat="44.23754" lon="5.73145">
        <ele>1049</ele>
        <time>2024-04-21T09:28:46Z</time>
      </trkpt>
      <trkpt lat="44.23752" lon="5.73147">
        <ele>1050</ele>
        <time>2024-04-21T09:28:55Z</time>
      </trkpt>
      <trkpt lat="44.23741" lon="5.73154">
        <ele>1051</ele>
        <time>2024-04-21T09:29:09Z</time>
      </trkpt>
      <trkpt lat="44.23734" lon="5.73158">
        <ele>1052</ele>
        <time>2024-04-21T09:29:19Z</time>
      </trkpt>
      <trkpt lat="44.23731" lon="5.73163">
        <ele>1052</ele>
        <time>2024-04-21T09:29:27Z</time>
      </trkpt>
      <trkpt lat="44.23727" lon="5.73166">
        <ele>1053</ele>
        <time>2024-04-21T09:29:33Z</time>
      </trkpt>
      <trkpt lat="44.23722" lon="5.73166">
        <ele>1054</ele>
        <time>2024-04-21T09:29:39Z</time>
      </trkpt>
      <trkpt lat="44.23718" lon="5.73167">
        <ele>1054</ele>
        <time>2024-04-21T09:29:44Z</time>
      </trkpt>
      <trkpt lat="44.23716" lon="5.73172">
        <ele>1055</ele>
        <time>2024-04-21T09:29:53Z</time>
      </trkpt>
      <trkpt lat="44.2371" lon="5.7317">
        <ele>1056</ele>
        <time>2024-04-21T09:30:01Z</time>
      </trkpt>
      <trkpt lat="44.23705" lon="5.73169">
        <ele>1057</ele>
        <time>2024-04-21T09:30:12Z</time>
      </trkpt>
      <trkpt lat="44.237" lon="5.73167">
        <ele>1059</ele>
        <time>2024-04-21T09:30:28Z</time>
      </trkpt>
      <trkpt lat="44.23687" lon="5.73147">
        <ele>1063</ele>
        <time>2024-04-21T09:30:54Z</time>
      </trkpt>
      <trkpt lat="44.23667" lon="5.73119">
        <ele>1068</ele>
        <time>2024-04-21T09:31:32Z</time>
      </trkpt>
      <trkpt lat="44.23654" lon="5.73103">
        <ele>1072</ele>
        <time>2024-04-21T09:32:00Z</time>
      </trkpt>
      <trkpt lat="44.23645" lon="5.731">
        <ele>1074</ele>
        <time>2024-04-21T09:32:17Z</time>
      </trkpt>
      <trkpt lat="44.23636" lon="5.73097">
        <ele>1077</ele>
        <time>2024-04-21T09:32:39Z</time>
      </trkpt>
      <trkpt lat="44.23622" lon="5.73083">
        <ele>1080</ele>
        <time>2024-04-21T09:32:59Z</time>
      </trkpt>
      <trkpt lat="44.23615" lon="5.73074">
        <ele>1082</ele>
        <time>2024-04-21T09:33:14Z</time>
      </trkpt>
      <trkpt lat="44.23606" lon="5.73069">
        <ele>1086</ele>
        <time>2024-04-21T09:33:39Z</time>
      </trkpt>
      <trkpt lat="44.23601" lon="5.73056">
        <ele>1088</ele>
        <time>2024-04-21T09:33:55Z</time>
      </trkpt>
      <trkpt lat="44.23595" lon="5.73048">
        <ele>1089</ele>
        <time>2024-04-21T09:34:08Z</time>
      </trkpt>
      <trkpt lat="44.23588" lon="5.73038">
        <ele>1091</ele>
        <time>2024-04-21T09:34:18Z</time>
      </trkpt>
      <trkpt lat="44.23584" lon="5.73027">
        <ele>1092</ele>
        <time>2024-04-21T09:34:28Z</time>
      </trkpt>
      <trkpt lat="44.23578" lon="5.73017">
        <ele>1095</ele>
        <time>2024-04-21T09:34:48Z</time>
      </trkpt>
      <trkpt lat="44.23574" lon="5.73006">
        <ele>1097</ele>
        <time>2024-04-21T09:35:01Z</time>
      </trkpt>
      <trkpt lat="44.23568" lon="5.72996">
        <ele>1099</ele>
        <time>2024-04-21T09:35:19Z</time>
      </trkpt>
      <trkpt lat="44.23562" lon="5.72987">
        <ele>1101</ele>
        <time>2024-04-21T09:35:30Z</time>
      </trkpt>
      <trkpt lat="44.23559" lon="5.72975">
        <ele>1103</ele>
        <time>2024-04-21T09:35:49Z</time>
      </trkpt>
      <trkpt lat="44.23553" lon="5.72966">
        <ele>1105</ele>
        <time>2024-04-21T09:36:04Z</time>
      </trkpt>
      <trkpt lat="44.23546" lon="5.72957">
        <ele>1108</ele>
        <time>2024-04-21T09:36:19Z</time>
      </trkpt>
      <trkpt lat="44.23542" lon="5.72946">
        <ele>1111</ele>
        <time>2024-04-21T09:36:43Z</time>
      </trkpt>
      <trkpt lat="44.23537" lon="5.72936">
        <ele>1113</ele>
        <time>2024-04-21T09:36:56Z</time>
      </trkpt>
      <trkpt lat="44.23532" lon="5.72912">
        <ele>1116</ele>
        <time>2024-04-21T09:37:17Z</time>
      </trkpt>
      <trkpt lat="44.2352" lon="5.72887">
        <ele>1119</ele>
        <time>2024-04-21T09:37:43Z</time>
      </trkpt>
      <trkpt lat="44.23513" lon="5.72876">
        <ele>1121</ele>
        <time>2024-04-21T09:37:57Z</time>
      </trkpt>
      <trkpt lat="44.23507" lon="5.72872">
        <ele>1122</ele>
        <time>2024-04-21T09:38:04Z</time>
      </trkpt>
      <trkpt lat="44.23497" lon="5.72864">
        <ele>1124</ele>
        <time>2024-04-21T09:38:20Z</time>
      </trkpt>
      <trkpt lat="44.23495" lon="5.7286">
        <ele>1126</ele>
        <time>2024-04-21T09:38:30Z</time>
      </trkpt>
      <trkpt lat="44.23492" lon="5.72855">
        <ele>1127</ele>
        <time>2024-04-21T09:38:41Z</time>
      </trkpt>
      <trkpt lat="44.23487" lon="5.72851">
        <ele>1128</ele>
        <time>2024-04-21T09:38:48Z</time>
      </trkpt>
      <trkpt lat="44.23484" lon="5.72844">
        <ele>1129</ele>
        <time>2024-04-21T09:38:55Z</time>
      </trkpt>
      <trkpt lat="44.23481" lon="5.7284">
        <ele>1129</ele>
        <time>2024-04-21T09:38:59Z</time>
      </trkpt>
      <trkpt lat="44.23479" lon="5.72835">
        <ele>1130</ele>
        <time>2024-04-21T09:39:05Z</time>
      </trkpt>
      <trkpt lat="44.23474" lon="5.72826">
        <ele>1132</ele>
        <time>2024-04-21T09:39:17Z</time>
      </trkpt>
      <trkpt lat="44.23471" lon="5.72826">
        <ele>1133</ele>
        <time>2024-04-21T09:39:30Z</time>
      </trkpt>
      <trkpt lat="44.23467" lon="5.72823">
        <ele>1136</ele>
        <time>2024-04-21T09:39:56Z</time>
      </trkpt>
      <trkpt lat="44.2346" lon="5.72813">
        <ele>1138</ele>
        <time>2024-04-21T09:40:08Z</time>
      </trkpt>
      <trkpt lat="44.23457" lon="5.72809">
        <ele>1138</ele>
        <time>2024-04-21T09:40:13Z</time>
      </trkpt>
      <trkpt lat="44.23453" lon="5.72805">
        <ele>1139</ele>
        <time>2024-04-21T09:40:20Z</time>
      </trkpt>
      <trkpt lat="44.23447" lon="5.72795">
        <ele>1141</ele>
        <time>2024-04-21T09:40:35Z</time>
      </trkpt>
      <trkpt lat="44.23443" lon="5.72778">
        <ele>1143</ele>
        <time>2024-04-21T09:40:51Z</time>
      </trkpt>
      <trkpt lat="44.23441" lon="5.72772">
        <ele>1143</ele>
        <time>2024-04-21T09:40:57Z</time>
      </trkpt>
      <trkpt lat="44.23436" lon="5.72765">
        <ele>1145</ele>
        <time>2024-04-21T09:41:11Z</time>
      </trkpt>
      <trkpt lat="44.23434" lon="5.72747">
        <ele>1146</ele>
        <time>2024-04-21T09:41:22Z</time>
      </trkpt>
      <trkpt lat="44.2343" lon="5.72742">
        <ele>1147</ele>
        <time>2024-04-21T09:41:34Z</time>
      </trkpt>
      <trkpt lat="44.23427" lon="5.72737">
        <ele>1147</ele>
        <time>2024-04-21T09:41:39Z</time>
      </trkpt>
      <trkpt lat="44.23422" lon="5.7273">
        <ele>1148</ele>
        <time>2024-04-21T09:41:48Z</time>
      </trkpt>
      <trkpt lat="44.23414" lon="5.7271">
        <ele>1150</ele>
        <time>2024-04-21T09:42:03Z</time>
      </trkpt>
      <trkpt lat="44.23409" lon="5.72698">
        <ele>1152</ele>
        <time>2024-04-21T09:42:26Z</time>
      </trkpt>
      <trkpt lat="44.23405" lon="5.72693">
        <ele>1153</ele>
        <time>2024-04-21T09:42:44Z</time>
      </trkpt>
      <trkpt lat="44.23404" lon="5.72688">
        <ele>1154</ele>
        <time>2024-04-21T09:42:53Z</time>
      </trkpt>
      <trkpt lat="44.23398" lon="5.72678">
        <ele>1156</ele>
        <time>2024-04-21T09:43:14Z</time>
      </trkpt>
      <trkpt lat="44.23394" lon="5.72675">
        <ele>1157</ele>
        <time>2024-04-21T09:43:19Z</time>
      </trkpt>
      <trkpt lat="44.23392" lon="5.7267">
        <ele>1158</ele>
        <time>2024-04-21T09:43:24Z</time>
      </trkpt>
      <trkpt lat="44.23389" lon="5.72665">
        <ele>1159</ele>
        <time>2024-04-21T09:43:32Z</time>
      </trkpt>
      <trkpt lat="44.2338" lon="5.7266">
        <ele>1160</ele>
        <time>2024-04-21T09:43:46Z</time>
      </trkpt>
      <trkpt lat="44.23376" lon="5.72655">
        <ele>1161</ele>
        <time>2024-04-21T09:43:55Z</time>
      </trkpt>
      <trkpt lat="44.23373" lon="5.7265">
        <ele>1162</ele>
        <time>2024-04-21T09:44:01Z</time>
      </trkpt>
      <trkpt lat="44.23373" lon="5.72643">
        <ele>1164</ele>
        <time>2024-04-21T09:44:12Z</time>
      </trkpt>
      <trkpt lat="44.23368" lon="5.72632">
        <ele>1168</ele>
        <time>2024-04-21T09:44:41Z</time>
      </trkpt>
      <trkpt lat="44.23364" lon="5.72626">
        <ele>1169</ele>
        <time>2024-04-21T09:44:50Z</time>
      </trkpt>
      <trkpt lat="44.2336" lon="5.72621">
        <ele>1170</ele>
        <time>2024-04-21T09:44:57Z</time>
      </trkpt>
      <trkpt lat="44.23356" lon="5.72607">
        <ele>1173</ele>
        <time>2024-04-21T09:45:15Z</time>
      </trkpt>
      <trkpt lat="44.23351" lon="5.72604">
        <ele>1173</ele>
        <time>2024-04-21T09:45:20Z</time>
      </trkpt>
      <trkpt lat="44.23346" lon="5.72602">
        <ele>1174</ele>
        <time>2024-04-21T09:45:26Z</time>
      </trkpt>
      <trkpt lat="44.2334" lon="5.72578">
        <ele>1177</ele>
        <time>2024-04-21T09:45:50Z</time>
      </trkpt>
      <trkpt lat="44.23341" lon="5.72565">
        <ele>1180</ele>
        <time>2024-04-21T09:46:13Z</time>
      </trkpt>
      <trkpt lat="44.2334" lon="5.72551">
        <ele>1182</ele>
        <time>2024-04-21T09:46:22Z</time>
      </trkpt>
      <trkpt lat="44.23341" lon="5.72539">
        <ele>1183</ele>
        <time>2024-04-21T09:46:31Z</time>
      </trkpt>
      <trkpt lat="44.23338" lon="5.72527">
        <ele>1184</ele>
        <time>2024-04-21T09:46:43Z</time>
      </trkpt>
      <trkpt lat="44.23333" lon="5.72516">
        <ele>1187</ele>
        <time>2024-04-21T09:47:01Z</time>
      </trkpt>
      <trkpt lat="44.23327" lon="5.72507">
        <ele>1190</ele>
        <time>2024-04-21T09:47:23Z</time>
      </trkpt>
      <trkpt lat="44.23324" lon="5.72506">
        <ele>1192</ele>
        <time>2024-04-21T09:47:42Z</time>
      </trkpt>
      <trkpt lat="44.23319" lon="5.72502">
        <ele>1194</ele>
        <time>2024-04-21T09:47:57Z</time>
      </trkpt>
      <trkpt lat="44.23314" lon="5.72491">
        <ele>1197</ele>
        <time>2024-04-21T09:48:16Z</time>
      </trkpt>
      <trkpt lat="44.23306" lon="5.72479">
        <ele>1199</ele>
        <time>2024-04-21T09:48:31Z</time>
      </trkpt>
      <trkpt lat="44.23303" lon="5.72473">
        <ele>1200</ele>
        <time>2024-04-21T09:48:37Z</time>
      </trkpt>
      <trkpt lat="44.23292" lon="5.72465">
        <ele>1202</ele>
        <time>2024-04-21T09:48:51Z</time>
      </trkpt>
      <trkpt lat="44.23285" lon="5.72461">
        <ele>1205</ele>
        <time>2024-04-21T09:49:15Z</time>
      </trkpt>
      <trkpt lat="44.23281" lon="5.72451">
        <ele>1208</ele>
        <time>2024-04-21T09:49:32Z</time>
      </trkpt>
      <trkpt lat="44.23277" lon="5.72449">
        <ele>1209</ele>
        <time>2024-04-21T09:49:41Z</time>
      </trkpt>
      <trkpt lat="44.23274" lon="5.72446">
        <ele>1210</ele>
        <time>2024-04-21T09:49:53Z</time>
      </trkpt>
      <trkpt lat="44.23271" lon="5.72441">
        <ele>1211</ele>
        <time>2024-04-21T09:49:58Z</time>
      </trkpt>
      <trkpt lat="44.23266" lon="5.72433">
        <ele>1212</ele>
        <time>2024-04-21T09:50:05Z</time>
      </trkpt>
      <trkpt lat="44.23263" lon="5.72427">
        <ele>1213</ele>
        <time>2024-04-21T09:50:13Z</time>
      </trkpt>
      <trkpt lat="44.2326" lon="5.7242">
        <ele>1214</ele>
        <time>2024-04-21T09:50:20Z</time>
      </trkpt>
      <trkpt lat="44.23258" lon="5.72415">
        <ele>1215</ele>
        <time>2024-04-21T09:50:26Z</time>
      </trkpt>
      <trkpt lat="44.2325" lon="5.72389">
        <ele>1218</ele>
        <time>2024-04-21T09:50:51Z</time>
      </trkpt>
      <trkpt lat="44.23244" lon="5.72381">
        <ele>1220</ele>
        <time>2024-04-21T09:51:09Z</time>
      </trkpt>
      <trkpt lat="44.23237" lon="5.72379">
        <ele>1224</ele>
        <time>2024-04-21T09:51:42Z</time>
      </trkpt>
      <trkpt lat="44.23233" lon="5.72376">
        <ele>1225</ele>
        <time>2024-04-21T09:51:52Z</time>
      </trkpt>
      <trkpt lat="44.23229" lon="5.72375">
        <ele>1226</ele>
        <time>2024-04-21T09:52:01Z</time>
      </trkpt>
      <trkpt lat="44.23226" lon="5.72373">
        <ele>1227</ele>
        <time>2024-04-21T09:52:07Z</time>
      </trkpt>
      <trkpt lat="44.23223" lon="5.72369">
        <ele>1228</ele>
        <time>2024-04-21T09:52:19Z</time>
      </trkpt>
      <trkpt lat="44.23219" lon="5.72367">
        <ele>1229</ele>
        <time>2024-04-21T09:52:26Z</time>
      </trkpt>
      <trkpt lat="44.23213" lon="5.72355">
        <ele>1232</ele>
        <time>2024-04-21T09:52:49Z</time>
      </trkpt>
      <trkpt lat="44.23208" lon="5.72348">
        <ele>1233</ele>
        <time>2024-04-21T09:52:55Z</time>
      </trkpt>
      <trkpt lat="44.23203" lon="5.72345">
        <ele>1235</ele>
        <time>2024-04-21T09:53:06Z</time>
      </trkpt>
      <trkpt lat="44.23199" lon="5.72344">
        <ele>1236</ele>
        <time>2024-04-21T09:53:14Z</time>
      </trkpt>
      <trkpt lat="44.23196" lon="5.72338">
        <ele>1237</ele>
        <time>2024-04-21T09:53:22Z</time>
      </trkpt>
      <trkpt lat="44.23191" lon="5.72337">
        <ele>1238</ele>
        <time>2024-04-21T09:53:30Z</time>
      </trkpt>
      <trkpt lat="44.23186" lon="5.72337">
        <ele>1239</ele>
        <time>2024-04-21T09:53:38Z</time>
      </trkpt>
      <trkpt lat="44.23178" lon="5.72327">
        <ele>1241</ele>
        <time>2024-04-21T09:53:51Z</time>
      </trkpt>
      <trkpt lat="44.23179" lon="5.72323">
        <ele>1241</ele>
        <time>2024-04-21T09:53:58Z</time>
      </trkpt>
      <trkpt lat="44.23176" lon="5.72321">
        <ele>1246</ele>
        <time>2024-04-21T09:54:35Z</time>
      </trkpt>
      <trkpt lat="44.23166" lon="5.72312">
        <ele>1248</ele>
        <time>2024-04-21T09:55:00Z</time>
      </trkpt>
      <trkpt lat="44.23162" lon="5.72308">
        <ele>1249</ele>
        <time>2024-04-21T09:55:08Z</time>
      </trkpt>
      <trkpt lat="44.23159" lon="5.72306">
        <ele>1249</ele>
        <time>2024-04-21T09:55:12Z</time>
      </trkpt>
      <trkpt lat="44.23156" lon="5.72305">
        <ele>1250</ele>
        <time>2024-04-21T09:55:17Z</time>
      </trkpt>
      <trkpt lat="44.23152" lon="5.723">
        <ele>1251</ele>
        <time>2024-04-21T09:55:27Z</time>
      </trkpt>
      <trkpt lat="44.23148" lon="5.72294">
        <ele>1252</ele>
        <time>2024-04-21T09:55:37Z</time>
      </trkpt>
      <trkpt lat="44.2314" lon="5.7229">
        <ele>1253</ele>
        <time>2024-04-21T09:55:49Z</time>
      </trkpt>
      <trkpt lat="44.23138" lon="5.72283">
        <ele>1254</ele>
        <time>2024-04-21T09:55:57Z</time>
      </trkpt>
      <trkpt lat="44.23134" lon="5.72277">
        <ele>1256</ele>
        <time>2024-04-21T09:56:12Z</time>
      </trkpt>
      <trkpt lat="44.23131" lon="5.72272">
        <ele>1256</ele>
        <time>2024-04-21T09:56:18Z</time>
      </trkpt>
      <trkpt lat="44.23124" lon="5.72264">
        <ele>1257</ele>
        <time>2024-04-21T09:56:27Z</time>
      </trkpt>
      <trkpt lat="44.23118" lon="5.7226">
        <ele>1259</ele>
        <time>2024-04-21T09:56:44Z</time>
      </trkpt>
      <trkpt lat="44.23116" lon="5.72257">
        <ele>1261</ele>
        <time>2024-04-21T09:56:53Z</time>
      </trkpt>
      <trkpt lat="44.23107" lon="5.72246">
        <ele>1264</ele>
        <time>2024-04-21T09:57:22Z</time>
      </trkpt>
      <trkpt lat="44.23101" lon="5.72243">
        <ele>1265</ele>
        <time>2024-04-21T09:57:28Z</time>
      </trkpt>
      <trkpt lat="44.23095" lon="5.72236">
        <ele>1267</ele>
        <time>2024-04-21T09:57:39Z</time>
      </trkpt>
      <trkpt lat="44.23094" lon="5.7223">
        <ele>1267</ele>
        <time>2024-04-21T09:57:46Z</time>
      </trkpt>
      <trkpt lat="44.23088" lon="5.72224">
        <ele>1270</ele>
        <time>2024-04-21T09:58:03Z</time>
      </trkpt>
      <trkpt lat="44.23084" lon="5.72222">
        <ele>1270</ele>
        <time>2024-04-21T09:58:09Z</time>
      </trkpt>
      <trkpt lat="44.2308" lon="5.7222">
        <ele>1271</ele>
        <time>2024-04-21T09:58:14Z</time>
      </trkpt>
      <trkpt lat="44.23077" lon="5.7222">
        <ele>1272</ele>
        <time>2024-04-21T09:58:20Z</time>
      </trkpt>
      <trkpt lat="44.23073" lon="5.72218">
        <ele>1272</ele>
        <time>2024-04-21T09:58:25Z</time>
      </trkpt>
      <trkpt lat="44.23071" lon="5.72213">
        <ele>1274</ele>
        <time>2024-04-21T09:58:37Z</time>
      </trkpt>
      <trkpt lat="44.23067" lon="5.72211">
        <ele>1275</ele>
        <time>2024-04-21T09:58:46Z</time>
      </trkpt>
      <trkpt lat="44.23063" lon="5.72208">
        <ele>1277</ele>
        <time>2024-04-21T09:59:03Z</time>
      </trkpt>
      <trkpt lat="44.23061" lon="5.72205">
        <ele>1278</ele>
        <time>2024-04-21T09:59:06Z</time>
      </trkpt>
      <trkpt lat="44.23056" lon="5.72198">
        <ele>1279</ele>
        <time>2024-04-21T09:59:19Z</time>
      </trkpt>
      <trkpt lat="44.23053" lon="5.72195">
        <ele>1280</ele>
        <time>2024-04-21T09:59:22Z</time>
      </trkpt>
      <trkpt lat="44.23051" lon="5.72191">
        <ele>1280</ele>
        <time>2024-04-21T09:59:25Z</time>
      </trkpt>
      <trkpt lat="44.23049" lon="5.72188">
        <ele>1280</ele>
        <time>2024-04-21T09:59:28Z</time>
      </trkpt>
      <trkpt lat="44.23045" lon="5.72187">
        <ele>1281</ele>
        <time>2024-04-21T09:59:32Z</time>
      </trkpt>
      <trkpt lat="44.23039" lon="5.72185">
        <ele>1282</ele>
        <time>2024-04-21T09:59:38Z</time>
      </trkpt>
      <trkpt lat="44.23035" lon="5.72184">
        <ele>1282</ele>
        <time>2024-04-21T09:59:41Z</time>
      </trkpt>
      <trkpt lat="44.23026" lon="5.72185">
        <ele>1283</ele>
        <time>2024-04-21T09:59:52Z</time>
      </trkpt>
      <trkpt lat="44.23023" lon="5.72187">
        <ele>1284</ele>
        <time>2024-04-21T09:59:57Z</time>
      </trkpt>
      <trkpt lat="44.23021" lon="5.7219">
        <ele>1285</ele>
        <time>2024-04-21T10:00:04Z</time>
      </trkpt>
      <trkpt lat="44.23012" lon="5.72194">
        <ele>1286</ele>
        <time>2024-04-21T10:00:16Z</time>
      </trkpt>
      <trkpt lat="44.23001" lon="5.72218">
        <ele>1290</ele>
        <time>2024-04-21T10:00:49Z</time>
      </trkpt>
      <trkpt lat="44.22996" lon="5.72229">
        <ele>1291</ele>
        <time>2024-04-21T10:00:57Z</time>
      </trkpt>
      <trkpt lat="44.22995" lon="5.72242">
        <ele>1292</ele>
        <time>2024-04-21T10:01:06Z</time>
      </trkpt>
      <trkpt lat="44.22991" lon="5.72245">
        <ele>1293</ele>
        <time>2024-04-21T10:01:11Z</time>
      </trkpt>
      <trkpt lat="44.22984" lon="5.72261">
        <ele>1294</ele>
        <time>2024-04-21T10:01:25Z</time>
      </trkpt>
      <trkpt lat="44.22981" lon="5.72267">
        <ele>1295</ele>
        <time>2024-04-21T10:01:31Z</time>
      </trkpt>
      <trkpt lat="44.22978" lon="5.7228">
        <ele>1296</ele>
        <time>2024-04-21T10:01:46Z</time>
      </trkpt>
      <trkpt lat="44.22975" lon="5.72286">
        <ele>1297</ele>
        <time>2024-04-21T10:01:51Z</time>
      </trkpt>
      <trkpt lat="44.2297" lon="5.7229">
        <ele>1298</ele>
        <time>2024-04-21T10:02:03Z</time>
      </trkpt>
      <trkpt lat="44.22967" lon="5.7228">
        <ele>1302</ele>
        <time>2024-04-21T10:02:42Z</time>
      </trkpt>
      <trkpt lat="44.22963" lon="5.72283">
        <ele>1305</ele>
        <time>2024-04-21T10:03:30Z</time>
      </trkpt>
      <trkpt lat="44.22958" lon="5.72283">
        <ele>1306</ele>
        <time>2024-04-21T10:03:44Z</time>
      </trkpt>
      <trkpt lat="44.22953" lon="5.72289">
        <ele>1307</ele>
        <time>2024-04-21T10:04:10Z</time>
      </trkpt>
      <trkpt lat="44.22947" lon="5.7229">
        <ele>1307</ele>
        <time>2024-04-21T10:04:19Z</time>
      </trkpt>
      <trkpt lat="44.22944" lon="5.72292">
        <ele>1307</ele>
        <time>2024-04-21T10:04:24Z</time>
      </trkpt>
      <trkpt lat="44.2294" lon="5.72295">
        <ele>1307</ele>
        <time>2024-04-21T10:04:30Z</time>
      </trkpt>
      <trkpt lat="44.22937" lon="5.72295">
        <ele>1307</ele>
        <time>2024-04-21T10:04:34Z</time>
      </trkpt>
      <trkpt lat="44.2293" lon="5.72283">
        <ele>1309</ele>
        <time>2024-04-21T10:05:04Z</time>
      </trkpt>
      <trkpt lat="44.22927" lon="5.72282">
        <ele>1311</ele>
        <time>2024-04-21T10:05:29Z</time>
      </trkpt>
      <trkpt lat="44.22926" lon="5.72278">
        <ele>1311</ele>
        <time>2024-04-21T10:05:32Z</time>
      </trkpt>
      <trkpt lat="44.22923" lon="5.72275">
        <ele>1313</ele>
        <time>2024-04-21T10:05:57Z</time>
      </trkpt>
      <trkpt lat="44.22923" lon="5.72271">
        <ele>1314</ele>
        <time>2024-04-21T10:06:07Z</time>
      </trkpt>
      <trkpt lat="44.22918" lon="5.7226">
        <ele>1318</ele>
        <time>2024-04-21T10:06:41Z</time>
      </trkpt>
      <trkpt lat="44.22913" lon="5.72253">
        <ele>1320</ele>
        <time>2024-04-21T10:06:57Z</time>
      </trkpt>
      <trkpt lat="44.22911" lon="5.7225">
        <ele>1322</ele>
        <time>2024-04-21T10:07:17Z</time>
      </trkpt>
      <trkpt lat="44.22915" lon="5.72248">
        <ele>1323</ele>
        <time>2024-04-21T10:07:26Z</time>
      </trkpt>
      <trkpt lat="44.22915" lon="5.72243">
        <ele>1324</ele>
        <time>2024-04-21T10:07:31Z</time>
      </trkpt>
      <trkpt lat="44.22915" lon="5.72243">
        <ele>1329</ele>
        <time>2024-04-21T10:17:58Z</time>
      </trkpt>
      <trkpt lat="44.22917" lon="5.72245">
        <ele>1329</ele>
        <time>2024-04-21T10:18:03Z</time>
      </trkpt>
      <trkpt lat="44.2292" lon="5.72245">
        <ele>1329</ele>
        <time>2024-04-21T10:18:10Z</time>
      </trkpt>
      <trkpt lat="44.22922" lon="5.72241">
        <ele>1329</ele>
        <time>2024-04-21T10:18:18Z</time>
      </trkpt>
      <trkpt lat="44.22923" lon="5.72237">
        <ele>1329</ele>
        <time>2024-04-21T10:18:58Z</time>
      </trkpt>
      <trkpt lat="44.22924" lon="5.72231">
        <ele>1329</ele>
        <time>2024-04-21T10:19:07Z</time>
      </trkpt>
      <trkpt lat="44.22926" lon="5.72227">
        <ele>1329</ele>
        <time>2024-04-21T10:19:14Z</time>
      </trkpt>
      <trkpt lat="44.2293" lon="5.72218">
        <ele>1329</ele>
        <time>2024-04-21T10:19:28Z</time>
      </trkpt>
      <trkpt lat="44.22933" lon="5.72211">
        <ele>1330</ele>
        <time>2024-04-21T10:19:44Z</time>
      </trkpt>
      <trkpt lat="44.22935" lon="5.72202">
        <ele>1330</ele>
        <time>2024-04-21T10:19:53Z</time>
      </trkpt>
      <trkpt lat="44.22944" lon="5.72201">
        <ele>1301.8</ele>
        <time>2024-04-21T10:20:05Z</time>
      </trkpt>
      <trkpt lat="44.22941" lon="5.72188">
        <ele>1331</ele>
        <time>2024-04-21T10:20:13Z</time>
      </trkpt>
    </trkseg>
  </trk>
</gpx>